createdAt,value
2022-07-30T00:02:45.371Z,2.85
2022-07-30T00:06:47.448Z,2.90
2022-07-30T00:10:50.327Z,2.97
2022-07-30T00:14:52.360Z,3.00
2022-07-30T00:18:54.408Z,3.05
2022-07-30T00:22:56.896Z,2.58
2022-07-30T00:26:59.134Z,3.00
2022-07-30T00:31:01.504Z,3.08
2022-07-30T00:35:04.161Z,3.22
2022-07-30T00:39:06.529Z,3.13
2022-07-30T00:43:08.612Z,2.80
2022-07-30T00:47:10.648Z,2.72
2022-07-30T00:51:12.796Z,2.90
2022-07-30T00:55:16.068Z,2.90
2022-07-30T00:59:18.147Z,2.60
2022-07-30T01:03:20.232Z,3.03
2022-07-30T01:07:22.443Z,2.83
2022-07-30T01:11:35.636Z,3.10
2022-07-30T01:15:38.601Z,3.15
2022-07-30T01:19:48.544Z,3.10
2022-07-30T01:23:53.492Z,3.13
2022-07-30T01:28:01.013Z,3.33
2022-07-30T01:32:07.258Z,2.97
2022-07-30T01:36:14.109Z,3.50
2022-07-30T01:40:16.633Z,3.78
2022-07-30T01:44:23.714Z,3.33
2022-07-30T01:48:27.805Z,3.40
2022-07-30T01:52:33.828Z,3.28
2022-07-30T01:56:37.721Z,3.17
2022-07-30T02:00:43.531Z,3.30
2022-07-30T02:04:45.982Z,3.65
2022-07-30T02:09:01.487Z,3.15
2022-07-30T02:13:10.095Z,3.13
2022-07-30T02:17:20.548Z,2.90
2022-07-30T02:21:24.363Z,3.42
2022-07-30T02:25:44.313Z,2.92
2022-07-30T02:29:48.583Z,3.03
2022-07-30T02:33:54.706Z,2.90
2022-07-30T02:37:58.196Z,3.28
2022-07-30T02:42:00.944Z,3.10
2022-07-30T02:46:04.840Z,3.03
2022-07-30T02:50:27.843Z,2.90
2022-07-30T02:54:31.461Z,3.03
2022-07-30T02:58:35.985Z,2.92
2022-07-30T03:02:39.593Z,3.00
2022-07-30T03:06:43.126Z,2.88
2022-07-30T03:10:46.084Z,3.08
2022-07-30T03:14:48.244Z,3.28
2022-07-30T03:18:54.177Z,3.22
2022-07-30T03:22:58.769Z,3.17
2022-07-30T03:31:08.061Z,3.20
2022-07-30T03:35:17.302Z,3.10
2022-07-30T03:39:22.064Z,2.78
2022-07-30T03:43:33.618Z,3.05
2022-07-30T03:47:39.507Z,2.92
2022-07-30T03:51:42.120Z,3.50
2022-07-30T03:55:44.394Z,3.60
2022-07-30T04:00:14.539Z,3.38
2022-07-30T04:04:19.933Z,3.90
2022-07-30T04:08:23.545Z,3.67
2022-07-30T04:12:26.595Z,4.20
2022-07-30T04:16:52.099Z,4.57
2022-07-30T04:20:59.651Z,3.75
2022-07-30T04:25:03.621Z,3.90
2022-07-30T04:29:09.210Z,4.15
2022-07-30T04:33:16.763Z,3.92
2022-07-30T04:37:32.273Z,3.42
2022-07-30T04:41:48.997Z,3.22
2022-07-30T04:46:24.511Z,3.30
2022-07-30T04:50:29.152Z,3.53
2022-07-30T04:54:39.282Z,2.92
2022-07-30T04:58:43.212Z,2.90
2022-07-30T05:02:49.045Z,3.10
2022-07-30T05:06:52.357Z,3.30
2022-07-30T05:10:55.164Z,2.78
2022-07-30T05:14:58.873Z,2.97
2022-07-30T05:19:00.946Z,3.20
2022-07-30T05:23:04.018Z,3.00
2022-07-30T05:27:06.226Z,2.78
2022-07-30T05:31:08.865Z,2.80
2022-07-30T05:35:12.120Z,2.80
2022-07-30T05:39:14.473Z,3.30
2022-07-30T05:43:28.490Z,2.80
2022-07-30T05:47:30.584Z,2.80
2022-07-30T05:51:32.710Z,3.22
2022-07-30T05:55:36.309Z,3.90
2022-07-30T06:00:11.559Z,4.20
2022-07-30T06:04:19.530Z,3.40
2022-07-30T06:08:24.911Z,3.75
2022-07-30T06:12:30.980Z,3.63
2022-07-30T06:16:33.004Z,3.90
2022-07-30T06:20:35.315Z,3.60
2022-07-30T06:24:50.541Z,3.75
2022-07-30T06:28:56.239Z,4.53
2022-07-30T06:33:04.251Z,4.40
2022-07-30T06:37:06.307Z,4.22
2022-07-30T06:41:09.064Z,4.50
2022-07-30T06:45:23.115Z,4.28
2022-07-30T06:49:45.383Z,4.40
2022-07-30T06:53:48.242Z,4.75
2022-07-30T06:57:50.233Z,4.32
2022-07-30T07:02:12.179Z,4.45
2022-07-30T07:06:53.188Z,5.40
2022-07-30T07:11:03.639Z,5.53
2022-07-30T07:15:09.095Z,5.63
2022-07-30T07:19:11.119Z,5.07
2022-07-30T07:23:16.222Z,5.53
2022-07-30T07:27:22.544Z,5.50
2022-07-30T07:32:06.449Z,5.90
2022-07-30T07:35:50.495Z,5.60
2022-07-30T07:40:01.934Z,5.57
2022-07-30T07:44:07.432Z,5.10
2022-07-30T07:48:11.292Z,5.93
2022-07-30T07:52:39.182Z,6.20
2022-07-30T07:56:41.438Z,6.18
2022-07-30T08:00:46.065Z,5.90
2022-07-30T08:04:48.858Z,5.47
2022-07-30T08:09:21.773Z,5.82
2022-07-30T08:13:51.791Z,5.20
2022-07-30T08:18:13.961Z,5.40
2022-07-30T08:22:45.316Z,4.93
2022-07-30T08:26:47.391Z,5.10
2022-07-30T08:30:49.920Z,4.95
2022-07-30T08:34:52.818Z,4.72
2022-07-30T08:38:56.981Z,4.88
2022-07-30T08:43:00.667Z,4.53
2022-07-30T08:47:03.903Z,4.47
2022-07-30T08:51:24.873Z,4.55
2022-07-30T08:55:49.801Z,4.03
2022-07-30T08:59:59.083Z,4.63
2022-07-30T09:04:03.657Z,4.55
2022-07-30T09:08:08.969Z,4.60
2022-07-30T09:12:36.261Z,4.28
2022-07-30T09:16:40.488Z,4.45
2022-07-30T09:20:42.533Z,4.20
2022-07-30T09:24:45.559Z,3.55
2022-07-30T09:29:18.285Z,4.82
2022-07-30T09:33:55.571Z,3.97
2022-07-30T09:38:16.831Z,4.05
2022-07-30T09:42:28.833Z,4.65
2022-07-30T09:46:48.320Z,6.63
2022-07-30T09:51:16.022Z,6.13
2022-07-30T09:55:33.263Z,5.60
2022-07-30T09:59:35.598Z,5.05
2022-07-30T10:03:43.510Z,5.00
2022-07-30T10:08:09.510Z,5.07
2022-07-30T10:12:24.209Z,4.85
2022-07-30T10:16:29.759Z,5.43
2022-07-30T10:20:33.868Z,5.40
2022-07-30T10:25:05.167Z,4.70
2022-07-30T10:29:33.749Z,4.30
2022-07-30T10:33:40.088Z,4.30
2022-07-30T10:37:46.872Z,3.60
2022-07-30T10:42:20.268Z,3.00
2022-07-30T10:46:35.987Z,3.13
2022-07-30T10:50:59.820Z,2.90
2022-07-30T10:55:12.887Z,2.92
2022-07-30T10:59:17.972Z,2.83
2022-07-30T11:03:23.657Z,2.50
2022-07-30T11:07:42.941Z,2.90
2022-07-30T11:12:01.367Z,2.70
2022-07-30T11:16:08.420Z,2.75
2022-07-30T11:20:11.721Z,3.78
2022-07-30T11:24:45.481Z,3.22
2022-07-30T11:28:49.470Z,2.60
2022-07-30T11:32:53.806Z,3.28
2022-07-30T11:37:19.264Z,2.80
2022-07-30T11:41:25.790Z,3.28
2022-07-30T11:45:29.498Z,3.05
2022-07-30T11:49:37.440Z,3.55
2022-07-30T11:53:39.454Z,3.00
2022-07-30T11:57:42.404Z,2.67
2022-07-30T12:01:49.647Z,3.17
2022-07-30T12:05:53.479Z,3.40
2022-07-30T12:10:26.753Z,3.10
2022-07-30T12:14:39.093Z,2.70
2022-07-30T12:18:41.181Z,2.38
2022-07-30T12:22:43.973Z,2.50
2022-07-30T12:26:46.825Z,2.70
2022-07-30T12:30:50.875Z,2.22
2022-07-30T12:34:55.831Z,2.20
2022-07-30T12:38:58.728Z,2.00
2022-07-30T12:43:00.911Z,2.08
2022-07-30T12:47:05.303Z,2.00
2022-07-30T12:51:08.849Z,2.17
2022-07-30T12:55:12.647Z,2.10
2022-07-30T12:59:23.902Z,2.10
2022-07-30T13:03:28.255Z,2.50
2022-07-30T13:07:32.149Z,1.88
2022-07-30T13:11:48.764Z,1.95
2022-07-30T13:20:00.796Z,1.88
2022-07-30T13:24:03.103Z,2.00
2022-07-30T13:28:05.143Z,1.70
2022-07-30T13:32:07.280Z,1.55
2022-07-30T13:36:09.552Z,1.70
2022-07-30T13:40:11.634Z,1.50
2022-07-30T13:44:13.669Z,1.60
2022-07-30T13:48:15.815Z,1.20
2022-07-30T13:52:18.766Z,1.20
2022-07-30T13:56:21.208Z,1.55
2022-07-30T14:00:24.743Z,1.50
2022-07-30T14:04:26.870Z,1.50
2022-07-30T14:08:31.343Z,1.40
2022-07-30T14:12:34.606Z,1.33
2022-07-30T14:16:45.159Z,1.40
2022-07-30T14:20:49.347Z,1.13
2022-07-30T14:24:51.416Z,1.30
2022-07-30T14:28:53.456Z,1.48
2022-07-30T14:33:00.426Z,1.35
2022-07-30T14:37:05.308Z,1.35
2022-07-30T14:41:09.064Z,1.25
2022-07-30T14:45:11.308Z,1.40
2022-07-30T14:49:15.672Z,1.50
2022-07-30T14:53:22.094Z,1.50
2022-07-30T14:57:24.453Z,1.40
2022-07-30T15:01:26.515Z,1.40
2022-07-30T15:05:28.596Z,1.40
2022-07-30T15:09:30.686Z,1.60
2022-07-30T15:13:32.721Z,1.63
2022-07-30T15:17:35.498Z,1.70
2022-07-30T15:21:37.502Z,1.52
2022-07-30T15:25:39.784Z,1.70
2022-07-30T15:29:41.863Z,1.80
2022-07-30T15:33:44.899Z,1.33
2022-07-30T15:37:47.167Z,1.55
2022-07-30T15:41:49.280Z,1.50
2022-07-30T15:45:55.992Z,1.60
2022-07-30T15:49:58.657Z,1.55
2022-07-30T15:54:00.872Z,1.13
2022-07-30T15:58:03.972Z,1.27
2022-07-30T16:02:06.492Z,1.50
2022-07-30T16:06:08.778Z,1.40
2022-07-30T16:10:10.917Z,1.40
2022-07-30T16:14:13.066Z,1.58
2022-07-30T16:18:15.074Z,1.10
2022-07-30T16:22:22.148Z,0.93
2022-07-30T16:26:26.220Z,1.00
2022-07-30T16:30:28.502Z,1.10
2022-07-30T16:34:30.688Z,1.00
2022-07-30T16:38:32.721Z,1.20
2022-07-30T16:42:34.816Z,0.90
2022-07-30T16:46:38.628Z,0.90
2022-07-30T16:50:41.498Z,1.17
2022-07-30T16:54:43.540Z,1.30
2022-07-30T16:58:46.136Z,1.30
2022-07-30T17:02:48.207Z,1.30
2022-07-30T17:06:51.554Z,1.00
2022-07-30T17:10:54.513Z,1.30
2022-07-30T17:14:59.315Z,1.40
2022-07-30T17:19:01.448Z,1.50
2022-07-30T17:23:12.184Z,1.38
2022-07-30T17:27:14.302Z,1.60
2022-07-30T17:31:16.357Z,1.30
2022-07-30T17:35:18.780Z,1.45
2022-07-30T17:40:27.149Z,1.23
2022-07-30T17:43:44.070Z,1.60
2022-07-30T17:47:46.130Z,1.60
2022-07-30T17:51:48.154Z,1.50
2022-07-30T17:55:57.789Z,1.98
2022-07-30T18:00:01.322Z,1.90
2022-07-30T18:04:06.677Z,2.80
2022-07-30T18:08:08.709Z,2.55
2022-07-30T18:12:10.902Z,1.80
2022-07-30T18:16:12.967Z,2.22
2022-07-30T18:20:15.356Z,1.73
2022-07-30T18:24:17.400Z,1.90
2022-07-30T18:28:19.498Z,2.30
2022-07-30T18:32:23.382Z,2.90
2022-07-30T18:36:25.442Z,2.10
2022-07-30T18:40:27.888Z,2.42
2022-07-30T18:44:29.998Z,2.15
2022-07-30T18:48:32.011Z,1.80
2022-07-30T18:52:34.378Z,1.63
2022-07-30T18:56:36.498Z,1.80
2022-07-30T19:00:39.745Z,2.00
2022-07-30T19:04:41.925Z,1.80
2022-07-30T19:08:44.033Z,2.00
2022-07-30T19:12:46.213Z,2.10
2022-07-30T19:16:48.728Z,2.47
2022-07-30T19:20:51.560Z,2.92
2022-07-30T19:24:54.030Z,2.67
2022-07-30T19:28:56.246Z,2.63
2022-07-30T19:33:15.076Z,3.72
2022-07-30T19:37:17.878Z,2.20
2022-07-30T19:41:19.896Z,2.00
2022-07-30T19:45:24.139Z,2.00
2022-07-30T19:49:29.730Z,2.10
2022-07-30T19:53:34.181Z,2.83
2022-07-30T19:57:53.044Z,2.72
2022-07-30T20:01:56.655Z,2.22
2022-07-30T20:06:00.141Z,2.50
2022-07-30T20:10:02.224Z,2.40
2022-07-30T20:14:05.026Z,2.30
2022-07-30T20:18:08.205Z,2.25
2022-07-30T20:22:10.463Z,2.92
2022-07-30T20:26:15.975Z,2.40
2022-07-30T20:30:18.109Z,2.05
2022-07-30T20:34:30.649Z,2.30
2022-07-30T20:38:35.727Z,2.30
2022-07-30T20:42:42.740Z,2.17
2022-07-30T20:46:44.777Z,2.28
2022-07-30T20:50:49.194Z,2.60
2022-07-30T20:54:51.443Z,2.20
2022-07-30T20:58:53.509Z,2.53
2022-07-30T21:02:57.643Z,2.55
2022-07-30T21:06:59.721Z,2.50
2022-07-30T21:11:03.920Z,2.40
2022-07-30T21:15:23.756Z,2.70
2022-07-30T21:19:26.442Z,2.60
2022-07-30T21:23:31.602Z,2.50
2022-07-30T21:27:35.233Z,2.50
2022-07-30T21:32:02.119Z,2.40
2022-07-30T21:36:00.367Z,2.10
2022-07-30T21:40:03.842Z,2.60
2022-07-30T21:44:06.142Z,2.30
2022-07-30T21:48:10.786Z,2.55
2022-07-30T21:52:13.045Z,2.90
2022-07-30T21:56:16.221Z,2.60
2022-07-30T22:00:21.915Z,2.60
2022-07-30T22:04:24.545Z,2.55
2022-07-30T22:08:29.483Z,3.08
2022-07-30T22:12:34.667Z,2.85
2022-07-30T22:16:38.196Z,2.55
2022-07-30T22:20:49.193Z,1.98
2022-07-30T22:24:52.042Z,2.30
2022-07-30T22:28:54.405Z,2.33
2022-07-30T22:33:14.242Z,2.28
2022-07-30T22:37:21.248Z,2.70
2022-07-30T22:41:23.550Z,2.63
2022-07-30T22:45:46.826Z,2.83
2022-07-30T22:49:56.313Z,3.15
2022-07-30T22:54:12.566Z,3.47
2022-07-30T22:58:15.059Z,2.75
2022-07-30T23:02:17.093Z,2.97
2022-07-30T23:06:20.527Z,2.42
2022-07-30T23:10:23.012Z,2.10
2022-07-30T23:14:28.677Z,2.35
2022-07-30T23:18:30.707Z,2.83
2022-07-30T23:22:32.723Z,2.85
2022-07-30T23:26:34.794Z,2.75
2022-07-30T23:30:36.840Z,2.70
2022-07-30T23:34:38.883Z,2.58
2022-07-30T23:38:40.951Z,2.67
2022-07-30T23:42:43.027Z,2.60
2022-07-30T23:46:45.085Z,2.40
2022-07-30T23:50:47.143Z,2.72
2022-07-30T23:54:49.253Z,2.60
2022-07-30T23:58:52.114Z,2.58
